sensor_id;sensor_type;location;lat;lon;timestamp;pressure;altitude;pressure_sealevel;temperature;humidity
41264;BME280;26998;48.714;9.414;2023-09-07T00:01:42;100349.28;;;14.28;100.00
41264;BME280;26998;48.714;9.414;2023-09-07T00:04:10;100338.34;;;14.30;100.00
41264;BME280;26998;48.714;9.414;2023-09-07T00:06:40;100328.22;;;14.32;100.00
41264;BME280;26998;48.714;9.414;2023-09-07T00:09:11;100314.97;;;14.30;100.00
41264;BME280;26998;48.714;9.414;2023-09-07T00:11:39;100309.41;;;14.32;100.00
41264;BME280;26998;48.714;9.414;2023-09-07T00:14:05;100302.66;;;14.21;100.00
41264;BME280;26998;48.714;9.414;2023-09-07T00:16:35;100293.25;;;14.32;100.00
41264;BME280;26998;48.714;9.414;2023-09-07T00:19:02;100279.91;;;14.39;100.00
41264;BME280;26998;48.714;9.414;2023-09-07T00:21:29;100266.28;;;14.25;100.00
41264;BME280;26998;48.714;9.414;2023-09-07T00:23:57;100278.25;;;14.08;100.00
41264;BME280;26998;48.714;9.414;2023-09-07T00:26:31;100310.63;;;14.00;100.00
41264;BME280;26998;48.714;9.414;2023-09-07T00:28:57;100333.53;;;13.96;100.00
41264;BME280;26998;48.714;9.414;2023-09-07T00:31:25;100336.94;;;13.90;100.00
41264;BME280;26998;48.714;9.414;2023-09-07T00:33:53;100345.94;;;13.97;100.00
41264;BME280;26998;48.714;9.414;2023-09-07T00:36:25;100331.84;;;14.09;100.00
41264;BME280;26998;48.714;9.414;2023-09-07T00:38:51;100311.09;;;14.18;100.00
41264;BME280;26998;48.714;9.414;2023-09-07T00:41:19;100310.97;;;14.26;100.00
41264;BME280;26998;48.714;9.414;2023-09-07T00:43:46;100291.91;;;14.21;100.00
41264;BME280;26998;48.714;9.414;2023-09-07T00:46:16;100287.63;;;14.12;100.00
41264;BME280;26998;48.714;9.414;2023-09-07T00:48:45;100294.78;;;14.05;100.00
41264;BME280;26998;48.714;9.414;2023-09-07T00:51:12;100292.34;;;13.95;100.00
41264;BME280;26998;48.714;9.414;2023-09-07T00:53:42;100325.06;;;13.84;100.00
41264;BME280;26998;48.714;9.414;2023-09-07T00:56:09;100333.75;;;13.86;100.00
41264;BME280;26998;48.714;9.414;2023-09-07T00:58:43;100339.44;;;13.91;100.00
41264;BME280;26998;48.714;9.414;2023-09-07T01:01:11;100331.75;;;13.88;100.00
41264;BME280;26998;48.714;9.414;2023-09-07T01:03:38;100329.72;;;13.90;100.00
41264;BME280;26998;48.714;9.414;2023-09-07T01:06:30;100337.38;;;13.78;100.00
41264;BME280;26998;48.714;9.414;2023-09-07T01:09:00;100353.03;;;13.75;100.00
41264;BME280;26998;48.714;9.414;2023-09-07T01:11:35;100360.25;;;13.74;100.00
41264;BME280;26998;48.714;9.414;2023-09-07T01:14:06;100369.22;;;13.67;100.00
41264;BME280;26998;48.714;9.414;2023-09-07T01:16:47;100379.50;;;13.63;100.00
41264;BME280;26998;48.714;9.414;2023-09-07T01:19:14;100386.88;;;13.61;100.00
41264;BME280;26998;48.714;9.414;2023-09-07T01:21:41;100402.19;;;13.60;100.00
41264;BME280;26998;48.714;9.414;2023-09-07T01:24:11;100392.63;;;13.58;100.00
41264;BME280;26998;48.714;9.414;2023-09-07T01:26:38;100399.03;;;13.57;100.00
41264;BME280;26998;48.714;9.414;2023-09-07T01:29:05;100397.16;;;13.57;100.00
41264;BME280;26998;48.714;9.414;2023-09-07T01:31:36;100405.84;;;13.68;100.00
41264;BME280;26998;48.714;9.414;2023-09-07T01:34:04;100383.13;;;13.70;100.00
41264;BME280;26998;48.714;9.414;2023-09-07T01:36:32;100344.88;;;13.68;100.00
41264;BME280;26998;48.714;9.414;2023-09-07T01:39:03;100336.28;;;13.50;100.00
41264;BME280;26998;48.714;9.414;2023-09-07T01:41:33;100358.97;;;13.47;100.00
41264;BME280;26998;48.714;9.414;2023-09-07T01:44:00;100371.25;;;13.42;100.00
41264;BME280;26998;48.714;9.414;2023-09-07T01:46:33;100372.66;;;13.37;100.00
41264;BME280;26998;48.714;9.414;2023-09-07T01:49:00;100364.41;;;13.39;100.00
41264;BME280;26998;48.714;9.414;2023-09-07T01:51:28;100343.09;;;13.37;100.00
41264;BME280;26998;48.714;9.414;2023-09-07T01:53:56;100344.19;;;13.28;100.00
41264;BME280;26998;48.714;9.414;2023-09-07T01:56:24;100348.88;;;13.26;100.00
41264;BME280;26998;48.714;9.414;2023-09-07T01:58:51;100348.22;;;13.24;100.00
41264;BME280;26998;48.714;9.414;2023-09-07T02:01:26;100362.88;;;13.13;100.00
41264;BME280;26998;48.714;9.414;2023-09-07T02:03:56;100377.78;;;13.16;100.00
41264;BME280;26998;48.714;9.414;2023-09-07T02:06:23;100387.00;;;13.22;100.00
41264;BME280;26998;48.714;9.414;2023-09-07T02:08:50;100367.38;;;13.21;100.00
41264;BME280;26998;48.714;9.414;2023-09-07T02:11:20;100379.44;;;13.17;100.00
41264;BME280;26998;48.714;9.414;2023-09-07T02:13:49;100381.75;;;12.97;100.00
41264;BME280;26998;48.714;9.414;2023-09-07T02:16:18;100410.84;;;12.85;100.00
41264;BME280;26998;48.714;9.414;2023-09-07T02:18:49;100433.69;;;12.73;100.00
41264;BME280;26998;48.714;9.414;2023-09-07T02:21:16;100467.59;;;12.66;100.00
41264;BME280;26998;48.714;9.414;2023-09-07T02:23:46;100487.19;;;12.75;100.00
41264;BME280;26998;48.714;9.414;2023-09-07T02:26:13;100474.59;;;12.75;100.00
41264;BME280;26998;48.714;9.414;2023-09-07T02:28:43;100471.09;;;12.75;100.00
41264;BME280;26998;48.714;9.414;2023-09-07T02:31:13;100462.91;;;12.68;100.00
41264;BME280;26998;48.714;9.414;2023-09-07T02:33:41;100459.88;;;12.71;100.00
41264;BME280;26998;48.714;9.414;2023-09-07T02:36:08;100441.78;;;12.65;100.00
41264;BME280;26998;48.714;9.414;2023-09-07T02:38:37;100461.25;;;12.59;100.00
41264;BME280;26998;48.714;9.414;2023-09-07T02:41:04;100467.94;;;12.63;100.00
41264;BME280;26998;48.714;9.414;2023-09-07T02:43:32;100477.97;;;12.69;100.00
41264;BME280;26998;48.714;9.414;2023-09-07T02:45:58;100486.50;;;12.73;100.00
41264;BME280;26998;48.714;9.414;2023-09-07T02:48:25;100483.97;;;12.79;100.00
41264;BME280;26998;48.714;9.414;2023-09-07T02:50:52;100469.38;;;12.82;100.00
41264;BME280;26998;48.714;9.414;2023-09-07T02:53:18;100460.50;;;12.81;100.00
41264;BME280;26998;48.714;9.414;2023-09-07T02:55:45;100452.44;;;12.81;100.00
41264;BME280;26998;48.714;9.414;2023-09-07T02:58:12;100443.38;;;12.82;100.00
41264;BME280;26998;48.714;9.414;2023-09-07T03:00:43;100442.28;;;12.68;100.00
41264;BME280;26998;48.714;9.414;2023-09-07T03:03:14;100448.81;;;12.66;100.00
41264;BME280;26998;48.714;9.414;2023-09-07T03:05:43;100448.13;;;12.64;100.00
41264;BME280;26998;48.714;9.414;2023-09-07T03:08:12;100443.78;;;12.63;100.00
41264;BME280;26998;48.714;9.414;2023-09-07T03:10:39;100435.41;;;12.58;100.00
41264;BME280;26998;48.714;9.414;2023-09-07T03:13:07;100445.66;;;12.54;100.00
41264;BME280;26998;48.714;9.414;2023-09-07T03:15:34;100446.63;;;12.61;100.00
41264;BME280;26998;48.714;9.414;2023-09-07T03:18:02;100439.94;;;12.65;100.00
41264;BME280;26998;48.714;9.414;2023-09-07T03:20:35;100419.38;;;12.50;100.00
41264;BME280;26998;48.714;9.414;2023-09-07T03:23:01;100414.34;;;12.46;100.00
41264;BME280;26998;48.714;9.414;2023-09-07T03:25:28;100427.25;;;12.43;100.00
41264;BME280;26998;48.714;9.414;2023-09-07T03:27:55;100434.78;;;12.39;100.00
41264;BME280;26998;48.714;9.414;2023-09-07T03:30:23;100436.00;;;12.37;100.00
41264;BME280;26998;48.714;9.414;2023-09-07T03:32:51;100428.63;;;12.31;100.00
41264;BME280;26998;48.714;9.414;2023-09-07T03:35:18;100423.09;;;12.32;100.00
41264;BME280;26998;48.714;9.414;2023-09-07T03:37:45;100428.13;;;12.19;100.00
41264;BME280;26998;48.714;9.414;2023-09-07T03:40:11;100454.44;;;11.99;100.00
41264;BME280;26998;48.714;9.414;2023-09-07T03:42:38;100472.72;;;11.87;100.00
41264;BME280;26998;48.714;9.414;2023-09-07T03:45:09;100494.97;;;11.88;100.00
41264;BME280;26998;48.714;9.414;2023-09-07T03:47:36;100518.19;;;11.79;100.00
41264;BME280;26998;48.714;9.414;2023-09-07T03:50:03;100531.94;;;11.76;100.00
41264;BME280;26998;48.714;9.414;2023-09-07T03:52:32;100545.31;;;11.76;100.00
41264;BME280;26998;48.714;9.414;2023-09-07T03:55:00;100544.31;;;11.69;100.00
41264;BME280;26998;48.714;9.414;2023-09-07T03:57:27;100554.34;;;11.67;100.00
41264;BME280;26998;48.714;9.414;2023-09-07T03:59:54;100571.88;;;11.61;100.00
41264;BME280;26998;48.714;9.414;2023-09-07T04:02:21;100571.41;;;11.66;100.00
41264;BME280;26998;48.714;9.414;2023-09-07T04:04:50;100568.22;;;11.70;100.00
41264;BME280;26998;48.714;9.414;2023-09-07T04:07:17;100578.44;;;11.67;100.00
41264;BME280;26998;48.714;9.414;2023-09-07T04:09:44;100577.78;;;11.73;100.00
41264;BME280;26998;48.714;9.414;2023-09-07T04:12:11;100567.25;;;11.71;100.00
41264;BME280;26998;48.714;9.414;2023-09-07T04:14:38;100565.91;;;11.75;100.00
41264;BME280;26998;48.714;9.414;2023-09-07T04:17:05;100563.25;;;11.75;100.00
41264;BME280;26998;48.714;9.414;2023-09-07T04:19:32;100555.03;;;11.77;100.00
41264;BME280;26998;48.714;9.414;2023-09-07T04:22:00;100549.50;;;11.78;100.00
41264;BME280;26998;48.714;9.414;2023-09-07T04:24:26;100543.66;;;11.83;100.00
41264;BME280;26998;48.714;9.414;2023-09-07T04:26:58;100530.25;;;11.83;100.00
41264;BME280;26998;48.714;9.414;2023-09-07T04:29:25;100525.91;;;11.82;100.00
41264;BME280;26998;48.714;9.414;2023-09-07T04:31:51;100520.38;;;11.75;100.00
41264;BME280;26998;48.714;9.414;2023-09-07T04:34:22;100522.38;;;11.73;100.00
41264;BME280;26998;48.714;9.414;2023-09-07T04:36:49;100521.53;;;11.73;100.00
41264;BME280;26998;48.714;9.414;2023-09-07T04:39:16;100522.56;;;11.72;100.00
41264;BME280;26998;48.714;9.414;2023-09-07T04:41:43;100519.88;;;11.72;100.00
41264;BME280;26998;48.714;9.414;2023-09-07T04:44:12;100523.53;;;11.71;100.00
41264;BME280;26998;48.714;9.414;2023-09-07T04:46:39;100513.34;;;11.66;100.00
41264;BME280;26998;48.714;9.414;2023-09-07T04:49:06;100507.13;;;11.66;100.00
41264;BME280;26998;48.714;9.414;2023-09-07T04:51:33;100507.47;;;11.71;100.00
41264;BME280;26998;48.714;9.414;2023-09-07T04:53:59;100525.22;;;11.80;100.00
41264;BME280;26998;48.714;9.414;2023-09-07T04:56:26;100523.38;;;11.80;100.00
41264;BME280;26998;48.714;9.414;2023-09-07T04:58:57;100535.44;;;11.76;100.00
41264;BME280;26998;48.714;9.414;2023-09-07T05:01:24;100525.41;;;11.78;100.00
41264;BME280;26998;48.714;9.414;2023-09-07T05:03:51;100514.69;;;11.78;100.00
41264;BME280;26998;48.714;9.414;2023-09-07T05:06:21;100515.19;;;11.82;100.00
41264;BME280;26998;48.714;9.414;2023-09-07T05:08:48;100514.38;;;11.82;100.00
41264;BME280;26998;48.714;9.414;2023-09-07T05:11:17;100502.63;;;11.83;100.00
41264;BME280;26998;48.714;9.414;2023-09-07T05:13:47;100499.50;;;11.87;100.00
41264;BME280;26998;48.714;9.414;2023-09-07T05:16:14;100492.94;;;11.90;100.00
41264;BME280;26998;48.714;9.414;2023-09-07T05:18:43;100487.78;;;11.96;100.00
41264;BME280;26998;48.714;9.414;2023-09-07T05:21:14;100480.59;;;11.97;100.00
41264;BME280;26998;48.714;9.414;2023-09-07T05:23:46;100478.88;;;11.96;100.00
41264;BME280;26998;48.714;9.414;2023-09-07T05:26:21;100494.31;;;11.94;100.00
41264;BME280;26998;48.714;9.414;2023-09-07T05:28:49;100503.66;;;11.90;100.00
41264;BME280;26998;48.714;9.414;2023-09-07T05:31:18;100502.50;;;11.92;100.00
41264;BME280;26998;48.714;9.414;2023-09-07T05:33:45;100499.50;;;12.04;100.00
41264;BME280;26998;48.714;9.414;2023-09-07T05:36:14;100491.47;;;12.04;100.00
41264;BME280;26998;48.714;9.414;2023-09-07T05:38:45;100476.72;;;12.16;100.00
41264;BME280;26998;48.714;9.414;2023-09-07T05:41:12;100470.38;;;12.09;100.00
41264;BME280;26998;48.714;9.414;2023-09-07T05:43:38;100468.69;;;12.08;100.00
41264;BME280;26998;48.714;9.414;2023-09-07T05:46:08;100465.84;;;12.09;100.00
41264;BME280;26998;48.714;9.414;2023-09-07T05:48:35;100467.34;;;12.04;100.00
41264;BME280;26998;48.714;9.414;2023-09-07T05:51:05;100473.72;;;12.02;100.00
41264;BME280;26998;48.714;9.414;2023-09-07T05:53:39;100468.84;;;12.06;100.00
41264;BME280;26998;48.714;9.414;2023-09-07T05:56:07;100471.03;;;12.19;100.00
41264;BME280;26998;48.714;9.414;2023-09-07T05:58:35;100484.41;;;12.27;100.00
41264;BME280;26998;48.714;9.414;2023-09-07T06:01:01;100488.75;;;12.36;100.00
41264;BME280;26998;48.714;9.414;2023-09-07T06:03:30;100486.44;;;12.25;100.00
41264;BME280;26998;48.714;9.414;2023-09-07T06:06:04;100479.34;;;12.48;100.00
41264;BME280;26998;48.714;9.414;2023-09-07T06:08:32;100449.81;;;12.65;100.00
41264;BME280;26998;48.714;9.414;2023-09-07T06:11:01;100428.47;;;12.80;100.00
41264;BME280;26998;48.714;9.414;2023-09-07T06:13:27;100400.09;;;12.85;100.00
41264;BME280;26998;48.714;9.414;2023-09-07T06:15:59;100379.94;;;12.89;100.00
41264;BME280;26998;48.714;9.414;2023-09-07T06:18:27;100363.28;;;13.02;100.00
41264;BME280;26998;48.714;9.414;2023-09-07T06:20:56;100356.66;;;13.13;100.00
41264;BME280;26998;48.714;9.414;2023-09-07T06:23:25;100355.75;;;13.29;100.00
41264;BME280;26998;48.714;9.414;2023-09-07T06:25:52;100327.44;;;13.18;100.00
41264;BME280;26998;48.714;9.414;2023-09-07T06:28:19;100319.97;;;13.36;100.00
41264;BME280;26998;48.714;9.414;2023-09-07T06:30:45;100298.78;;;13.56;100.00
41264;BME280;26998;48.714;9.414;2023-09-07T06:33:12;100257.94;;;13.61;100.00
41264;BME280;26998;48.714;9.414;2023-09-07T06:35:41;100244.53;;;13.76;100.00
41264;BME280;26998;48.714;9.414;2023-09-07T06:38:11;100196.31;;;14.04;100.00
41264;BME280;26998;48.714;9.414;2023-09-07T06:40:47;100138.97;;;14.33;100.00
41264;BME280;26998;48.714;9.414;2023-09-07T06:43:14;100100.22;;;14.27;100.00
41264;BME280;26998;48.714;9.414;2023-09-07T06:45:41;100112.59;;;14.43;100.00
41264;BME280;26998;48.714;9.414;2023-09-07T06:48:07;100106.53;;;14.56;100.00
41264;BME280;26998;48.714;9.414;2023-09-07T06:50:35;100075.16;;;14.70;100.00
41264;BME280;26998;48.714;9.414;2023-09-07T06:53:02;100034.16;;;14.96;100.00
41264;BME280;26998;48.714;9.414;2023-09-07T06:55:29;100028.50;;;14.84;100.00
41264;BME280;26998;48.714;9.414;2023-09-07T06:57:56;100028.84;;;15.09;100.00
41264;BME280;26998;48.714;9.414;2023-09-07T07:00:25;100002.38;;;15.19;100.00
41264;BME280;26998;48.714;9.414;2023-09-07T07:02:52;99981.53;;;15.35;100.00
41264;BME280;26998;48.714;9.414;2023-09-07T07:05:21;99959.84;;;15.63;100.00
41264;BME280;26998;48.714;9.414;2023-09-07T07:07:47;99919.09;;;15.92;100.00
41264;BME280;26998;48.714;9.414;2023-09-07T07:10:28;99904.16;;;16.03;100.00
41264;BME280;26998;48.714;9.414;2023-09-07T07:12:55;99902.09;;;16.05;100.00
41264;BME280;26998;48.714;9.414;2023-09-07T07:15:43;99913.25;;;16.22;100.00
41264;BME280;26998;48.714;9.414;2023-09-07T07:18:27;99892.47;;;16.49;100.00
41264;BME280;26998;48.714;9.414;2023-09-07T07:20:57;99856.50;;;16.69;100.00
41264;BME280;26998;48.714;9.414;2023-09-07T07:23:24;99833.81;;;16.90;100.00
41264;BME280;26998;48.714;9.414;2023-09-07T07:25:50;99804.84;;;17.03;100.00
41264;BME280;26998;48.714;9.414;2023-09-07T07:28:17;99799.59;;;17.15;100.00
41264;BME280;26998;48.714;9.414;2023-09-07T07:30:45;99778.06;;;17.34;100.00
41264;BME280;26998;48.714;9.414;2023-09-07T07:33:14;99758.66;;;17.43;100.00
41264;BME280;26998;48.714;9.414;2023-09-07T07:35:43;99739.72;;;17.68;100.00
41264;BME280;26998;48.714;9.414;2023-09-07T07:38:11;99729.47;;;17.77;100.00
41264;BME280;26998;48.714;9.414;2023-09-07T07:40:40;99685.59;;;18.12;100.00
41264;BME280;26998;48.714;9.414;2023-09-07T07:43:08;99671.28;;;18.41;100.00
41264;BME280;26998;48.714;9.414;2023-09-07T07:45:35;99624.13;;;18.91;100.00
41264;BME280;26998;48.714;9.414;2023-09-07T07:48:02;99593.97;;;19.23;100.00
41264;BME280;26998;48.714;9.414;2023-09-07T07:50:28;99433.78;;;19.76;100.00
41264;BME280;26998;48.714;9.414;2023-09-07T07:52:56;99380.47;;;19.99;100.00
41264;BME280;26998;48.714;9.414;2023-09-07T07:55:22;99377.59;;;20.22;100.00
41264;BME280;26998;48.714;9.414;2023-09-07T07:57:49;99352.47;;;20.15;100.00
41264;BME280;26998;48.714;9.414;2023-09-07T08:00:16;99329.75;;;20.38;100.00
41264;BME280;26998;48.714;9.414;2023-09-07T08:02:42;99323.25;;;20.39;100.00
41264;BME280;26998;48.714;9.414;2023-09-07T08:05:09;99318.94;;;20.60;100.00
41264;BME280;26998;48.714;9.414;2023-09-07T08:07:36;99296.09;;;20.78;100.00
41264;BME280;26998;48.714;9.414;2023-09-07T08:10:06;99254.28;;;21.06;100.00
41264;BME280;26998;48.714;9.414;2023-09-07T08:12:35;99264.63;;;21.09;100.00
41264;BME280;26998;48.714;9.414;2023-09-07T08:15:03;99257.75;;;21.29;100.00
41264;BME280;26998;48.714;9.414;2023-09-07T08:17:30;99208.31;;;21.69;100.00
41264;BME280;26998;48.714;9.414;2023-09-07T08:19:58;99216.59;;;21.47;100.00
41264;BME280;26998;48.714;9.414;2023-09-07T08:22:24;99208.38;;;21.79;100.00
41264;BME280;26998;48.714;9.414;2023-09-07T08:24:53;99202.78;;;21.54;100.00
41264;BME280;26998;48.714;9.414;2023-09-07T08:27:20;99198.50;;;21.63;100.00
41264;BME280;26998;48.714;9.414;2023-09-07T08:29:46;99190.91;;;21.70;100.00
41264;BME280;26998;48.714;9.414;2023-09-07T08:32:13;99173.41;;;22.08;100.00
41264;BME280;26998;48.714;9.414;2023-09-07T08:34:42;99182.28;;;22.31;100.00
41264;BME280;26998;48.714;9.414;2023-09-07T08:37:10;99171.25;;;22.10;100.00
41264;BME280;26998;48.714;9.414;2023-09-07T08:39:37;99174.16;;;22.56;100.00
41264;BME280;26998;48.714;9.414;2023-09-07T08:42:03;99173.88;;;22.53;100.00
41264;BME280;26998;48.714;9.414;2023-09-07T08:44:32;99151.88;;;22.85;100.00
41264;BME280;26998;48.714;9.414;2023-09-07T08:47:02;99132.28;;;23.09;100.00
41264;BME280;26998;48.714;9.414;2023-09-07T08:49:33;99125.69;;;22.74;100.00
41264;BME280;26998;48.714;9.414;2023-09-07T08:52:03;99142.84;;;22.59;100.00
41264;BME280;26998;48.714;9.414;2023-09-07T08:54:31;99135.53;;;23.11;100.00
41264;BME280;26998;48.714;9.414;2023-09-07T08:56:58;99118.63;;;23.34;100.00
41264;BME280;26998;48.714;9.414;2023-09-07T08:59:26;99105.81;;;23.35;100.00
41264;BME280;26998;48.714;9.414;2023-09-07T09:01:56;99118.06;;;23.37;100.00
41264;BME280;26998;48.714;9.414;2023-09-07T09:04:23;99114.78;;;23.45;100.00
41264;BME280;26998;48.714;9.414;2023-09-07T09:06:52;99115.31;;;23.47;100.00
41264;BME280;26998;48.714;9.414;2023-09-07T09:09:22;99113.97;;;23.50;100.00
41264;BME280;26998;48.714;9.414;2023-09-07T09:11:49;99107.09;;;23.63;100.00
41264;BME280;26998;48.714;9.414;2023-09-07T09:14:18;99090.91;;;23.92;100.00
41264;BME280;26998;48.714;9.414;2023-09-07T09:16:53;99079.59;;;24.19;100.00
41264;BME280;26998;48.714;9.414;2023-09-07T09:19:33;99081.28;;;24.10;100.00
41264;BME280;26998;48.714;9.414;2023-09-07T09:22:01;99096.72;;;23.65;100.00
41264;BME280;26998;48.714;9.414;2023-09-07T09:24:33;99080.59;;;24.33;100.00
41264;BME280;26998;48.714;9.414;2023-09-07T09:27:03;99084.72;;;24.26;100.00
41264;BME280;26998;48.714;9.414;2023-09-07T09:29:32;99080.09;;;24.26;100.00
41264;BME280;26998;48.714;9.414;2023-09-07T09:32:00;99073.22;;;24.34;100.00
41264;BME280;26998;48.714;9.414;2023-09-07T09:34:36;99066.69;;;24.69;100.00
41264;BME280;26998;48.714;9.414;2023-09-07T09:37:03;99064.16;;;24.43;100.00
41264;BME280;26998;48.714;9.414;2023-09-07T09:39:30;99069.13;;;24.31;100.00
41264;BME280;26998;48.714;9.414;2023-09-07T09:41:57;99057.09;;;24.42;100.00
41264;BME280;26998;48.714;9.414;2023-09-07T09:44:24;99047.63;;;24.19;100.00
41264;BME280;26998;48.714;9.414;2023-09-07T09:46:52;99049.66;;;23.98;100.00
41264;BME280;26998;48.714;9.414;2023-09-07T09:49:20;99060.38;;;24.34;100.00
41264;BME280;26998;48.714;9.414;2023-09-07T09:51:51;99056.09;;;24.97;100.00
41264;BME280;26998;48.714;9.414;2023-09-07T09:54:18;99043.47;;;25.30;100.00
41264;BME280;26998;48.714;9.414;2023-09-07T09:56:45;99046.84;;;24.93;100.00
41264;BME280;26998;48.714;9.414;2023-09-07T09:59:13;99040.38;;;24.78;100.00
41264;BME280;26998;48.714;9.414;2023-09-07T10:01:50;99039.91;;;24.71;100.00
41264;BME280;26998;48.714;9.414;2023-09-07T10:04:19;99036.94;;;25.50;100.00
41264;BME280;26998;48.714;9.414;2023-09-07T10:06:54;99027.28;;;25.33;100.00
41264;BME280;26998;48.714;9.414;2023-09-07T10:09:21;99026.91;;;25.45;100.00
41264;BME280;26998;48.714;9.414;2023-09-07T10:11:52;99021.78;;;25.57;100.00
41264;BME280;26998;48.714;9.414;2023-09-07T10:14:20;99020.44;;;25.36;100.00
41264;BME280;26998;48.714;9.414;2023-09-07T10:16:48;99023.31;;;25.69;100.00
41264;BME280;26998;48.714;9.414;2023-09-07T10:19:20;99016.44;;;25.47;100.00
41264;BME280;26998;48.714;9.414;2023-09-07T10:21:48;99011.00;;;26.09;99.90
41264;BME280;26998;48.714;9.414;2023-09-07T10:24:31;99010.47;;;26.07;99.94
41264;BME280;26998;48.714;9.414;2023-09-07T10:27:06;99007.53;;;25.85;100.00
41264;BME280;26998;48.714;9.414;2023-09-07T10:29:49;99004.44;;;25.67;100.00
41264;BME280;26998;48.714;9.414;2023-09-07T10:32:21;99001.53;;;26.20;99.65
41264;BME280;26998;48.714;9.414;2023-09-07T10:34:50;99002.56;;;26.24;97.95
41264;BME280;26998;48.714;9.414;2023-09-07T10:37:17;98996.09;;;26.34;96.98
41264;BME280;26998;48.714;9.414;2023-09-07T10:39:45;98995.09;;;26.49;99.01
41264;BME280;26998;48.714;9.414;2023-09-07T10:42:25;98986.72;;;26.21;99.08
41264;BME280;26998;48.714;9.414;2023-09-07T10:44:52;98982.41;;;26.53;97.18
41264;BME280;26998;48.714;9.414;2023-09-07T10:47:19;98980.00;;;26.65;97.03
41264;BME280;26998;48.714;9.414;2023-09-07T10:49:45;98981.88;;;26.84;94.42
41264;BME280;26998;48.714;9.414;2023-09-07T10:52:12;98989.16;;;26.75;94.35
41264;BME280;26998;48.714;9.414;2023-09-07T10:54:39;98981.38;;;26.95;94.64
41264;BME280;26998;48.714;9.414;2023-09-07T10:57:09;98980.28;;;27.10;91.93
41264;BME280;26998;48.714;9.414;2023-09-07T10:59:44;98977.50;;;26.83;92.66
41264;BME280;26998;48.714;9.414;2023-09-07T11:02:13;98978.53;;;27.01;91.81
41264;BME280;26998;48.714;9.414;2023-09-07T11:04:40;98978.28;;;27.30;88.89
41264;BME280;26998;48.714;9.414;2023-09-07T11:07:07;98966.81;;;26.67;92.23
41264;BME280;26998;48.714;9.414;2023-09-07T11:09:33;98965.94;;;27.00;92.72
41264;BME280;26998;48.714;9.414;2023-09-07T11:12:05;98964.56;;;27.30;92.15
41264;BME280;26998;48.714;9.414;2023-09-07T11:14:33;98960.53;;;26.94;92.13
41264;BME280;26998;48.714;9.414;2023-09-07T11:17:01;98961.28;;;27.28;89.51
41264;BME280;26998;48.714;9.414;2023-09-07T11:19:31;98959.34;;;27.56;89.14
41264;BME280;26998;48.714;9.414;2023-09-07T11:21:58;98957.38;;;27.84;88.46
41264;BME280;26998;48.714;9.414;2023-09-07T11:24:26;98960.75;;;27.67;86.10
41264;BME280;26998;48.714;9.414;2023-09-07T11:26:53;98957.69;;;27.69;85.02
41264;BME280;26998;48.714;9.414;2023-09-07T11:29:22;98954.38;;;27.58;84.02
41264;BME280;26998;48.714;9.414;2023-09-07T11:31:48;98961.38;;;27.50;85.80
41264;BME280;26998;48.714;9.414;2023-09-07T11:34:15;98948.34;;;27.70;84.63
41264;BME280;26998;48.714;9.414;2023-09-07T11:36:43;98951.06;;;27.83;84.72
41264;BME280;26998;48.714;9.414;2023-09-07T11:39:10;98947.50;;;27.69;82.17
41264;BME280;26998;48.714;9.414;2023-09-07T11:41:41;98932.50;;;27.53;84.33
41264;BME280;26998;48.714;9.414;2023-09-07T11:44:16;98937.22;;;27.75;85.40
41264;BME280;26998;48.714;9.414;2023-09-07T11:46:43;98923.06;;;27.95;81.11
41264;BME280;26998;48.714;9.414;2023-09-07T11:49:12;98926.81;;;28.22;75.47
41264;BME280;26998;48.714;9.414;2023-09-07T11:51:39;98926.25;;;27.89;81.22
41264;BME280;26998;48.714;9.414;2023-09-07T11:54:06;98924.19;;;28.39;79.27
41264;BME280;26998;48.714;9.414;2023-09-07T11:56:33;98927.97;;;27.84;85.50
41264;BME280;26998;48.714;9.414;2023-09-07T11:59:00;98916.84;;;28.35;80.79
41264;BME280;26998;48.714;9.414;2023-09-07T12:01:27;98920.31;;;28.18;80.90
41264;BME280;26998;48.714;9.414;2023-09-07T12:03:54;98913.72;;;28.41;78.58
41264;BME280;26998;48.714;9.414;2023-09-07T12:06:21;98917.81;;;28.30;79.69
41264;BME280;26998;48.714;9.414;2023-09-07T12:09:10;98919.63;;;28.57;76.07
41264;BME280;26998;48.714;9.414;2023-09-07T12:11:37;98911.63;;;28.47;78.17
41264;BME280;26998;48.714;9.414;2023-09-07T12:14:10;98911.22;;;28.62;73.90
41264;BME280;26998;48.714;9.414;2023-09-07T12:16:39;98919.00;;;29.00;74.79
41264;BME280;26998;48.714;9.414;2023-09-07T12:19:05;98914.53;;;28.73;77.80
41264;BME280;26998;48.714;9.414;2023-09-07T12:21:32;98906.47;;;28.45;74.64
41264;BME280;26998;48.714;9.414;2023-09-07T12:23:59;98913.91;;;28.76;75.07
41264;BME280;26998;48.714;9.414;2023-09-07T12:26:26;98906.41;;;28.68;72.92
41264;BME280;26998;48.714;9.414;2023-09-07T12:28:53;98918.19;;;28.99;69.21
41264;BME280;26998;48.714;9.414;2023-09-07T12:31:19;98907.97;;;28.91;68.72
41264;BME280;26998;48.714;9.414;2023-09-07T12:33:46;98901.47;;;28.87;65.65
41264;BME280;26998;48.714;9.414;2023-09-07T12:36:15;98895.69;;;28.97;68.67
41264;BME280;26998;48.714;9.414;2023-09-07T12:38:42;98895.47;;;29.16;65.71
41264;BME280;26998;48.714;9.414;2023-09-07T12:41:08;98894.88;;;28.97;65.04
41264;BME280;26998;48.714;9.414;2023-09-07T12:43:35;98894.03;;;28.88;69.25
41264;BME280;26998;48.714;9.414;2023-09-07T12:46:02;98893.00;;;29.15;68.35
41264;BME280;26998;48.714;9.414;2023-09-07T12:48:29;98890.94;;;29.29;69.64
41264;BME280;26998;48.714;9.414;2023-09-07T12:50:55;98894.22;;;28.91;70.85
41264;BME280;26998;48.714;9.414;2023-09-07T12:53:22;98888.78;;;29.09;69.03